createdAt,value
2024-03-07T00:02:09.980Z,4.90
2024-03-07T00:04:36.904Z,4.80
2024-03-07T00:07:04.666Z,4.80
2024-03-07T00:09:34.558Z,4.80
2024-03-07T00:12:05.061Z,4.80
2024-03-07T00:14:32.796Z,4.80
2024-03-07T00:17:00.047Z,4.70
2024-03-07T00:19:28.137Z,4.70
2024-03-07T00:21:55.461Z,4.70
2024-03-07T00:24:22.666Z,4.70
2024-03-07T00:26:49.574Z,4.70
2024-03-07T00:29:16.655Z,4.60
2024-03-07T00:31:43.377Z,4.60
2024-03-07T00:34:16.688Z,4.60
2024-03-07T00:36:47.499Z,4.60
2024-03-07T00:39:14.156Z,4.50
2024-03-07T00:41:41.816Z,4.50
2024-03-07T00:44:09.215Z,4.50
2024-03-07T00:46:37.228Z,4.50
2024-03-07T00:49:04.762Z,4.40
2024-03-07T00:51:31.828Z,4.40
2024-03-07T00:53:58.748Z,4.40
2024-03-07T00:56:25.737Z,4.40
2024-03-07T00:58:53.148Z,4.40
2024-03-07T01:01:19.939Z,4.30
2024-03-07T01:03:46.825Z,4.30
2024-03-07T01:06:13.572Z,4.30
2024-03-07T01:08:41.594Z,4.30
2024-03-07T01:11:08.485Z,4.30
2024-03-07T01:13:35.149Z,4.20
2024-03-07T01:16:01.838Z,4.20
2024-03-07T01:18:28.830Z,4.20
2024-03-07T01:20:55.581Z,4.20
2024-03-07T01:23:22.506Z,4.20
2024-03-07T01:25:49.207Z,4.20
2024-03-07T01:28:15.809Z,4.20
2024-03-07T01:30:42.579Z,4.10
2024-03-07T01:33:09.456Z,4.10
2024-03-07T01:35:36.250Z,4.10
2024-03-07T01:38:03.127Z,4.00
2024-03-07T01:40:29.942Z,4.00
2024-03-07T01:42:56.911Z,4.00
2024-03-07T01:45:23.686Z,4.00
2024-03-07T01:47:50.618Z,4.00
2024-03-07T01:50:17.521Z,4.00
2024-03-07T01:52:45.601Z,3.90
2024-03-07T01:55:13.870Z,3.90
2024-03-07T01:57:41.037Z,3.90
2024-03-07T02:00:08.548Z,3.90
2024-03-07T02:02:35.606Z,3.80
2024-03-07T02:05:02.967Z,3.80
2024-03-07T02:07:29.765Z,3.80
2024-03-07T02:10:04.233Z,3.80
2024-03-07T02:12:31.636Z,3.80
2024-03-07T02:14:58.603Z,3.80
2024-03-07T02:17:26.420Z,3.80
2024-03-07T02:19:53.665Z,3.70
2024-03-07T02:22:20.873Z,3.70
2024-03-07T02:24:47.889Z,3.70
2024-03-07T02:27:14.935Z,3.70
2024-03-07T02:29:42.530Z,3.60
2024-03-07T02:32:09.431Z,3.60
2024-03-07T02:34:36.244Z,3.60
2024-03-07T02:37:03.472Z,3.60
2024-03-07T02:39:30.175Z,3.60
2024-03-07T02:41:57.112Z,3.60
2024-03-07T02:44:23.864Z,3.60
2024-03-07T02:46:51.845Z,3.60
2024-03-07T02:49:18.585Z,3.60
2024-03-07T02:51:45.303Z,3.70
2024-03-07T02:54:11.983Z,3.70
2024-03-07T02:56:38.997Z,3.70
2024-03-07T02:59:05.973Z,3.70
2024-03-07T03:01:33.195Z,3.70
2024-03-07T03:03:59.978Z,3.70
2024-03-07T03:06:26.710Z,3.70
2024-03-07T03:08:53.678Z,3.70
2024-03-07T03:11:20.578Z,3.80
2024-03-07T03:13:47.566Z,3.80
2024-03-07T03:16:14.294Z,3.80
2024-03-07T03:18:41.965Z,3.80
2024-03-07T03:21:08.934Z,3.80
2024-03-07T03:23:35.797Z,3.80
2024-03-07T03:26:05.149Z,3.90
2024-03-07T03:28:31.947Z,3.90
2024-03-07T03:30:58.940Z,3.90
2024-03-07T03:33:25.690Z,3.90
2024-03-07T03:35:52.596Z,3.90
2024-03-07T03:38:19.478Z,3.90
2024-03-07T03:43:28.822Z,3.80
2024-03-07T03:45:57.130Z,3.80
2024-03-07T03:48:23.993Z,3.80
2024-03-07T03:50:51.579Z,3.70
2024-03-07T03:53:18.416Z,3.70
2024-03-07T03:55:45.102Z,3.70
2024-03-07T03:58:11.806Z,3.70
2024-03-07T04:00:38.503Z,3.70
2024-03-07T04:03:10.896Z,3.70
2024-03-07T04:05:37.800Z,3.60
2024-03-07T04:08:06.261Z,3.60
2024-03-07T04:10:33.054Z,3.60
2024-03-07T04:13:00.011Z,3.50
2024-03-07T04:15:26.882Z,3.50
2024-03-07T04:17:54.627Z,3.50
2024-03-07T04:20:23.216Z,3.50
2024-03-07T04:22:50.669Z,3.40
2024-03-07T04:25:20.605Z,3.40
2024-03-07T04:27:50.859Z,3.40
2024-03-07T04:30:18.375Z,3.30
2024-03-07T04:32:45.645Z,3.30
2024-03-07T04:35:14.135Z,3.30
2024-03-07T04:37:43.214Z,3.20
2024-03-07T04:40:11.177Z,3.20
2024-03-07T04:42:38.224Z,3.10
2024-03-07T04:45:08.147Z,3.10
2024-03-07T04:47:35.088Z,3.10
2024-03-07T04:50:05.335Z,3.10
2024-03-07T04:52:32.132Z,3.10
2024-03-07T04:54:58.944Z,3.00
2024-03-07T04:57:25.677Z,3.00
2024-03-07T04:59:52.376Z,3.00
2024-03-07T05:02:19.073Z,3.00
2024-03-07T05:04:46.013Z,3.00
2024-03-07T05:07:12.801Z,2.90
2024-03-07T05:09:39.524Z,2.90
2024-03-07T05:12:18.603Z,2.90
2024-03-07T05:14:45.615Z,2.80
2024-03-07T05:17:12.544Z,2.80
2024-03-07T05:19:39.270Z,2.80
2024-03-07T05:22:06.120Z,2.80
2024-03-07T05:24:56.816Z,2.80
2024-03-07T05:27:24.277Z,2.80
2024-03-07T05:33:21.462Z,2.70
2024-03-07T05:36:11.368Z,2.70
2024-03-07T05:38:39.450Z,2.70
2024-03-07T05:41:06.256Z,2.70
2024-03-07T05:53:59.255Z,2.60
2024-03-07T05:56:26.169Z,2.60
2024-03-07T05:58:56.346Z,2.60
2024-03-07T06:01:23.057Z,2.50
2024-03-07T06:03:49.818Z,2.50
2024-03-07T06:06:17.651Z,2.50
2024-03-07T06:08:45.623Z,2.50
2024-03-07T06:11:12.499Z,2.50
2024-03-07T06:13:39.240Z,2.50
2024-03-07T06:16:06.439Z,2.50
2024-03-07T06:18:33.208Z,2.50
2024-03-07T06:21:00.095Z,2.50
2024-03-07T06:23:26.802Z,2.50
2024-03-07T06:25:53.648Z,2.50
2024-03-07T06:28:20.398Z,2.50
2024-03-07T06:30:48.202Z,2.40
2024-03-07T06:33:15.781Z,2.50
2024-03-07T06:35:42.962Z,2.50
2024-03-07T06:38:10.774Z,2.40
2024-03-07T06:40:38.231Z,2.50
2024-03-07T06:43:05.300Z,2.40
2024-03-07T06:45:35.237Z,2.40
2024-03-07T06:48:04.245Z,2.40
2024-03-07T06:50:37.987Z,2.50
2024-03-07T06:53:08.773Z,2.50
2024-03-07T06:55:36.600Z,2.50
2024-03-07T06:58:09.308Z,2.50
2024-03-07T07:00:36.032Z,2.70
2024-03-07T07:03:04.515Z,2.80
2024-03-07T07:05:32.590Z,3.00
2024-03-07T07:08:00.559Z,3.10
2024-03-07T07:10:27.612Z,3.10
2024-03-07T07:13:06.397Z,3.00
2024-03-07T07:15:33.672Z,2.90
2024-03-07T07:18:00.766Z,2.90
2024-03-07T07:20:27.852Z,2.90
2024-03-07T07:22:54.902Z,2.90
2024-03-07T07:25:21.805Z,2.90
2024-03-07T07:27:54.944Z,3.00
2024-03-07T07:30:27.131Z,3.00
2024-03-07T07:32:55.053Z,3.10
2024-03-07T07:35:22.243Z,3.20
2024-03-07T07:37:52.964Z,3.30
2024-03-07T07:40:20.996Z,3.60
2024-03-07T07:42:48.345Z,3.80
2024-03-07T07:45:16.440Z,3.70
2024-03-07T07:47:45.035Z,3.80
2024-03-07T07:50:17.721Z,4.20
2024-03-07T07:52:55.904Z,4.30
2024-03-07T07:55:30.178Z,4.30
2024-03-07T07:58:01.265Z,4.40
2024-03-07T08:00:30.625Z,4.50
2024-03-07T08:03:00.062Z,4.40
2024-03-07T08:05:31.887Z,4.40
2024-03-07T08:08:06.712Z,4.30
2024-03-07T08:10:35.242Z,4.40
2024-03-07T08:13:03.342Z,4.60
2024-03-07T08:15:31.524Z,4.70
2024-03-07T08:18:08.000Z,4.60
2024-03-07T08:20:38.140Z,4.40
2024-03-07T08:23:08.073Z,4.50
2024-03-07T08:26:08.866Z,4.90
2024-03-07T08:28:35.639Z,5.40
2024-03-07T08:31:04.147Z,5.60
2024-03-07T08:33:35.267Z,5.80
2024-03-07T08:38:54.180Z,6.30
2024-03-07T08:41:20.968Z,6.20
2024-03-07T08:43:47.882Z,6.20
2024-03-07T08:46:14.745Z,6.50
2024-03-07T08:48:41.732Z,6.60
2024-03-07T08:51:08.675Z,6.50
2024-03-07T08:53:35.705Z,7.10
2024-03-07T08:56:08.358Z,7.40
2024-03-07T08:58:35.099Z,7.90
2024-03-07T09:01:01.885Z,7.70
2024-03-07T09:06:09.571Z,7.40
2024-03-07T09:08:36.760Z,7.80
2024-03-07T09:11:03.718Z,8.00
2024-03-07T09:13:30.682Z,8.30
2024-03-07T09:16:07.609Z,8.30
2024-03-07T09:18:34.392Z,7.90
2024-03-07T09:21:01.564Z,7.80
2024-03-07T09:23:28.645Z,7.70
2024-03-07T09:25:55.600Z,7.60
2024-03-07T09:28:22.341Z,7.10
2024-03-07T09:30:49.041Z,6.90
2024-03-07T09:33:15.834Z,7.40
2024-03-07T09:35:42.748Z,7.50
2024-03-07T09:38:15.024Z,7.40
2024-03-07T09:40:42.161Z,7.60
2024-03-07T09:43:11.756Z,7.40
2024-03-07T09:45:39.236Z,7.30
2024-03-07T09:48:15.558Z,7.20
2024-03-07T09:50:51.190Z,7.40
2024-03-07T09:53:20.783Z,7.30
2024-03-07T09:55:47.995Z,7.30
2024-03-07T09:58:20.038Z,7.60
2024-03-07T10:00:56.262Z,7.90
2024-03-07T10:04:07.342Z,7.80
2024-03-07T10:09:37.268Z,8.00
2024-03-07T10:12:04.547Z,8.30
2024-03-07T10:14:34.122Z,8.10
2024-03-07T10:17:01.070Z,8.20
2024-03-07T10:19:34.244Z,8.10
2024-03-07T10:22:00.970Z,7.90
2024-03-07T10:27:13.289Z,8.20
2024-03-07T10:29:40.537Z,8.30
2024-03-07T10:40:18.217Z,8.80
2024-03-07T10:42:49.307Z,8.80
2024-03-07T10:48:00.184Z,8.90
2024-03-07T10:50:43.569Z,9.00
2024-03-07T10:53:16.559Z,8.70
2024-03-07T10:56:31.901Z,8.30
2024-03-07T10:59:22.139Z,8.30
2024-03-07T11:01:58.267Z,8.60
2024-03-07T11:04:25.576Z,8.80
2024-03-07T11:06:52.490Z,9.00
2024-03-07T11:09:23.248Z,9.00
2024-03-07T11:11:51.478Z,9.30
2024-03-07T11:14:19.719Z,9.30
2024-03-07T11:16:47.985Z,8.70
2024-03-07T11:19:35.149Z,8.60
2024-03-07T11:22:02.326Z,8.70
2024-03-07T11:24:32.696Z,8.90
2024-03-07T11:27:03.317Z,8.80
2024-03-07T11:29:44.670Z,8.60
2024-03-07T11:35:00.345Z,8.70
2024-03-07T11:37:44.036Z,8.60
2024-03-07T11:40:14.168Z,8.80
2024-03-07T11:42:46.804Z,9.00
2024-03-07T11:45:23.970Z,9.30
2024-03-07T11:47:50.848Z,9.60
2024-03-07T11:50:17.694Z,9.80
2024-03-07T11:52:44.400Z,10.00
2024-03-07T11:55:11.445Z,10.20
2024-03-07T11:57:39.244Z,10.30
2024-03-07T12:00:06.625Z,10.50
2024-03-07T12:02:33.516Z,10.40
2024-03-07T12:05:00.816Z,10.40
2024-03-07T12:07:27.615Z,10.50
2024-03-07T12:09:54.522Z,10.40
2024-03-07T12:12:23.237Z,10.40
2024-03-07T12:14:51.124Z,10.50
2024-03-07T12:17:18.181Z,10.50
2024-03-07T12:19:45.196Z,10.40
2024-03-07T12:22:12.976Z,10.20
2024-03-07T12:24:45.747Z,10.00
2024-03-07T12:30:20.994Z,9.60
2024-03-07T12:32:51.427Z,9.80
2024-03-07T12:35:22.339Z,9.90
2024-03-07T12:37:49.644Z,10.10
2024-03-07T12:40:30.743Z,10.00
2024-03-07T12:46:19.641Z,9.90
2024-03-07T12:48:47.910Z,9.70
2024-03-07T12:51:16.086Z,10.10
2024-03-07T13:02:30.497Z,9.80
2024-03-07T13:05:04.233Z,9.70
2024-03-07T13:18:36.259Z,9.00
2024-03-07T13:21:31.716Z,9.00
2024-03-07T13:23:59.341Z,9.30
2024-03-07T13:32:30.472Z,9.50
2024-03-07T13:35:00.013Z,9.50
2024-03-07T13:40:25.719Z,9.30
2024-03-07T13:46:14.116Z,9.10
2024-03-07T13:48:41.042Z,9.20
2024-03-07T13:51:08.222Z,9.10
2024-03-07T13:53:36.937Z,9.20
2024-03-07T13:56:34.591Z,9.40
2024-03-07T13:59:07.147Z,9.60
2024-03-07T14:02:06.214Z,9.60
2024-03-07T14:04:58.581Z,9.40
2024-03-07T14:07:42.802Z,9.30
2024-03-07T14:10:58.999Z,9.30
2024-03-07T14:17:49.005Z,9.20
2024-03-07T14:21:06.117Z,9.40
2024-03-07T14:24:02.758Z,9.60
2024-03-07T14:27:23.100Z,9.40
2024-03-07T14:33:09.126Z,8.90
2024-03-07T14:36:02.301Z,9.20
2024-03-07T14:39:12.775Z,9.30
2024-03-07T14:45:07.367Z,9.10
2024-03-07T14:47:34.724Z,9.00
2024-03-07T14:50:01.540Z,9.10
2024-03-07T14:52:29.379Z,9.10
2024-03-07T15:11:15.425Z,8.20
2024-03-07T15:13:42.938Z,8.30
2024-03-07T15:16:21.352Z,8.20
2024-03-07T15:18:55.943Z,8.10
2024-03-07T15:21:22.810Z,8.10
2024-03-07T15:23:49.610Z,8.00
2024-03-07T15:26:16.506Z,8.10
2024-03-07T15:28:48.685Z,8.10
2024-03-07T15:31:15.652Z,8.20
2024-03-07T15:33:42.300Z,8.10
2024-03-07T15:45:06.338Z,7.80
2024-03-07T15:47:33.230Z,7.70
2024-03-07T15:50:09.606Z,7.70
2024-03-07T15:55:17.194Z,7.90
2024-03-07T15:57:48.952Z,8.00
2024-03-07T16:00:16.961Z,7.90
2024-03-07T16:02:43.808Z,7.90
2024-03-07T16:05:10.553Z,7.90
2024-03-07T16:07:39.786Z,7.80
2024-03-07T16:10:13.001Z,7.80
2024-03-07T16:15:48.474Z,7.80
2024-03-07T16:17:32.137Z,7.80
2024-03-07T16:18:16.592Z,7.70
2024-03-07T16:20:44.732Z,7.60
2024-03-07T16:36:48.618Z,7.20
2024-03-07T16:39:18.720Z,7.20
2024-03-07T16:41:45.797Z,7.20
2024-03-07T16:47:10.980Z,7.10
2024-03-07T17:13:19.912Z,6.60
2024-03-07T17:36:59.685Z,6.30
2024-03-07T17:39:36.848Z,6.20
2024-03-07T17:42:03.820Z,6.20
2024-03-07T17:52:58.944Z,6.10
2024-03-07T17:55:25.699Z,6.00
2024-03-07T17:57:52.534Z,6.00
2024-03-07T18:00:21.271Z,6.00
2024-03-07T18:05:30.084Z,5.90
2024-03-07T18:08:02.500Z,5.80
2024-03-07T18:10:38.033Z,5.80
2024-03-07T18:13:05.858Z,5.80
2024-03-07T18:15:32.823Z,5.70
2024-03-07T18:18:00.194Z,5.70
2024-03-07T18:20:28.290Z,5.70
2024-03-07T18:22:55.346Z,5.60
2024-03-07T18:25:22.538Z,5.60
2024-03-07T18:27:53.220Z,5.60
2024-03-07T18:30:20.010Z,5.60
2024-03-07T18:32:49.333Z,5.50
2024-03-07T18:35:17.393Z,5.50
2024-03-07T18:37:45.018Z,5.50
2024-03-07T18:40:13.404Z,5.50
2024-03-07T18:42:42.229Z,5.40
2024-03-07T18:45:13.212Z,5.40
2024-03-07T18:47:41.477Z,5.40
2024-03-07T18:50:18.643Z,5.30
2024-03-07T18:52:45.346Z,5.30
2024-03-07T18:55:12.738Z,5.30
2024-03-07T18:57:39.355Z,5.20
2024-03-07T19:00:06.982Z,5.20
2024-03-07T19:02:33.889Z,5.20
2024-03-07T19:05:00.825Z,5.10
2024-03-07T19:07:27.467Z,5.10
2024-03-07T19:09:54.757Z,5.10
2024-03-07T19:12:21.732Z,5.00
2024-03-07T19:14:48.723Z,5.00
2024-03-07T19:17:15.385Z,5.00
2024-03-07T19:19:42.050Z,4.90
2024-03-07T19:22:11.724Z,4.90
2024-03-07T19:24:52.565Z,4.90
2024-03-07T19:27:51.617Z,4.90
2024-03-07T19:30:19.205Z,4.80
2024-03-07T19:32:47.466Z,4.80
2024-03-07T19:35:14.710Z,4.80
2024-03-07T19:37:47.329Z,4.70
2024-03-07T19:42:57.307Z,4.70
2024-03-07T19:45:55.329Z,4.70
2024-03-07T19:48:22.484Z,4.60
2024-03-07T19:50:51.800Z,4.60
2024-03-07T19:53:22.452Z,4.60
2024-03-07T19:55:49.682Z,4.60
2024-03-07T19:58:17.012Z,4.50
2024-03-07T20:06:07.841Z,4.50
2024-03-07T20:09:08.942Z,4.40
2024-03-07T20:11:42.249Z,4.40
2024-03-07T20:14:09.464Z,4.40
2024-03-07T20:16:50.464Z,4.40
2024-03-07T20:19:18.630Z,4.40
2024-03-07T20:21:45.437Z,4.30
2024-03-07T20:24:12.124Z,4.30
2024-03-07T20:26:38.982Z,4.30
2024-03-07T20:29:05.872Z,4.20
2024-03-07T20:31:33.107Z,4.20
2024-03-07T20:34:05.066Z,4.20
2024-03-07T20:36:31.891Z,4.20
2024-03-07T20:38:59.079Z,4.20
2024-03-07T20:41:25.949Z,4.10
2024-03-07T20:43:54.343Z,4.10
2024-03-07T20:46:20.994Z,4.10
2024-03-07T20:48:48.523Z,4.10
2024-03-07T20:51:15.329Z,4.10
2024-03-07T20:53:42.395Z,4.00
2024-03-07T20:56:09.141Z,4.00
2024-03-07T20:58:36.146Z,4.00
2024-03-07T21:01:02.860Z,4.00
2024-03-07T21:03:29.555Z,3.90
2024-03-07T21:05:56.339Z,3.90
2024-03-07T21:08:23.068Z,3.80
2024-03-07T21:10:50.113Z,3.80
2024-03-07T21:13:17.887Z,3.80
2024-03-07T21:15:44.902Z,3.80
2024-03-07T21:18:11.874Z,3.80
2024-03-07T21:20:40.002Z,3.70
2024-03-07T21:23:07.090Z,3.70
2024-03-07T21:25:34.647Z,3.70
2024-03-07T21:28:05.864Z,3.60
2024-03-07T21:30:32.837Z,3.60
2024-03-07T21:33:09.094Z,3.60
2024-03-07T21:35:35.853Z,3.60
2024-03-07T21:38:02.531Z,3.50
2024-03-07T21:40:29.401Z,3.50
2024-03-07T21:42:56.416Z,3.50
2024-03-07T21:45:23.030Z,3.40
2024-03-07T21:47:49.836Z,3.40
2024-03-07T21:50:19.424Z,3.40
2024-03-07T21:52:47.863Z,3.40
2024-03-07T21:55:15.737Z,3.40
2024-03-07T21:57:44.284Z,3.30
2024-03-07T22:00:12.703Z,3.30
2024-03-07T22:05:38.665Z,3.30
2024-03-07T22:08:06.628Z,3.20
2024-03-07T22:10:34.800Z,3.20
2024-03-07T22:13:11.055Z,3.20
2024-03-07T22:15:37.901Z,3.20
2024-03-07T22:21:38.997Z,3.20
2024-03-07T22:24:17.825Z,3.10
2024-03-07T22:26:46.048Z,3.20
2024-03-07T22:29:14.212Z,3.10
2024-03-07T22:31:41.292Z,3.10
2024-03-07T22:34:11.876Z,3.10
2024-03-07T22:36:45.251Z,3.10
2024-03-07T22:39:18.021Z,3.10
2024-03-07T22:41:45.815Z,3.00
2024-03-07T22:44:15.976Z,3.00
2024-03-07T22:46:42.891Z,3.00
2024-03-07T22:49:11.201Z,3.00
2024-03-07T22:51:37.960Z,3.00
2024-03-07T22:54:05.278Z,3.00
2024-03-07T22:56:33.252Z,3.00
2024-03-07T22:59:03.232Z,3.00
2024-03-07T23:01:33.740Z,3.00
2024-03-07T23:04:01.504Z,3.00
2024-03-07T23:06:28.999Z,2.90
2024-03-07T23:08:55.772Z,3.00
2024-03-07T23:11:22.525Z,2.90
2024-03-07T23:13:49.350Z,2.90
2024-03-07T23:16:16.102Z,2.90
2024-03-07T23:18:45.687Z,2.90
2024-03-07T23:21:12.717Z,2.90
2024-03-07T23:23:39.436Z,2.90
2024-03-07T23:26:06.416Z,2.90
2024-03-07T23:28:33.148Z,2.90
2024-03-07T23:30:59.900Z,2.80
2024-03-07T23:33:29.507Z,2.80
2024-03-07T23:35:57.028Z,2.80
2024-03-07T23:38:27.089Z,2.80
2024-03-07T23:40:56.062Z,2.80
2024-03-07T23:43:25.153Z,2.80
2024-03-07T23:45:52.053Z,2.80
2024-03-07T23:48:20.330Z,2.80
2024-03-07T23:50:47.209Z,2.70
2024-03-07T23:53:14.081Z,2.70
2024-03-07T23:55:40.800Z,2.70
2024-03-07T23:58:07.818Z,2.70
